sensor_id;sensor_type;location;lat;lon;timestamp;P1;durP1;ratioP1;P2;durP2;ratioP2
58468;SDS011;44257;44.804;10.220;2023-09-07T00:00:42;6.45;;;5.80;;
58468;SDS011;44257;44.804;10.220;2023-09-07T00:03:08;6.47;;;5.15;;
58468;SDS011;44257;44.804;10.220;2023-09-07T00:05:34;8.38;;;5.78;;
58468;SDS011;44257;44.804;10.220;2023-09-07T00:07:59;6.95;;;5.35;;
58468;SDS011;44257;44.804;10.220;2023-09-07T00:10:25;6.90;;;5.65;;
58468;SDS011;44257;44.804;10.220;2023-09-07T00:12:51;7.50;;;5.38;;
58468;SDS011;44257;44.804;10.220;2023-09-07T00:15:17;7.22;;;5.78;;
58468;SDS011;44257;44.804;10.220;2023-09-07T00:17:46;6.20;;;5.60;;
58468;SDS011;44257;44.804;10.220;2023-09-07T00:20:12;6.40;;;5.47;;
58468;SDS011;44257;44.804;10.220;2023-09-07T00:22:40;7.80;;;5.18;;
58468;SDS011;44257;44.804;10.220;2023-09-07T00:25:06;8.02;;;5.60;;
58468;SDS011;44257;44.804;10.220;2023-09-07T00:27:33;7.07;;;5.82;;
58468;SDS011;44257;44.804;10.220;2023-09-07T00:29:59;6.82;;;5.90;;
58468;SDS011;44257;44.804;10.220;2023-09-07T00:32:25;6.78;;;5.78;;
58468;SDS011;44257;44.804;10.220;2023-09-07T00:34:51;6.13;;;5.47;;
58468;SDS011;44257;44.804;10.220;2023-09-07T00:37:17;6.72;;;5.32;;
58468;SDS011;44257;44.804;10.220;2023-09-07T00:39:43;6.53;;;5.50;;
58468;SDS011;44257;44.804;10.220;2023-09-07T00:42:09;9.48;;;5.38;;
58468;SDS011;44257;44.804;10.220;2023-09-07T00:44:35;7.30;;;5.88;;
58468;SDS011;44257;44.804;10.220;2023-09-07T00:47:00;6.68;;;5.88;;
58468;SDS011;44257;44.804;10.220;2023-09-07T00:49:27;6.90;;;5.68;;
58468;SDS011;44257;44.804;10.220;2023-09-07T00:51:53;9.30;;;5.32;;
58468;SDS011;44257;44.804;10.220;2023-09-07T00:54:19;7.63;;;5.93;;
58468;SDS011;44257;44.804;10.220;2023-09-07T00:56:45;7.13;;;5.45;;
58468;SDS011;44257;44.804;10.220;2023-09-07T00:59:11;7.55;;;5.97;;
58468;SDS011;44257;44.804;10.220;2023-09-07T01:01:38;7.22;;;5.97;;
58468;SDS011;44257;44.804;10.220;2023-09-07T01:04:04;8.07;;;5.78;;
58468;SDS011;44257;44.804;10.220;2023-09-07T01:06:30;6.60;;;5.85;;
58468;SDS011;44257;44.804;10.220;2023-09-07T01:09:14;7.45;;;5.57;;
58468;SDS011;44257;44.804;10.220;2023-09-07T01:11:45;7.38;;;5.57;;
58468;SDS011;44257;44.804;10.220;2023-09-07T01:14:10;6.90;;;5.22;;
58468;SDS011;44257;44.804;10.220;2023-09-07T01:16:36;7.10;;;6.05;;
58468;SDS011;44257;44.804;10.220;2023-09-07T01:19:05;6.22;;;5.60;;
58468;SDS011;44257;44.804;10.220;2023-09-07T01:21:34;6.82;;;5.95;;
58468;SDS011;44257;44.804;10.220;2023-09-07T01:24:04;8.07;;;5.67;;
58468;SDS011;44257;44.804;10.220;2023-09-07T01:26:33;6.95;;;5.78;;
58468;SDS011;44257;44.804;10.220;2023-09-07T01:29:00;7.72;;;5.88;;
58468;SDS011;44257;44.804;10.220;2023-09-07T01:31:26;7.28;;;6.40;;
58468;SDS011;44257;44.804;10.220;2023-09-07T01:33:52;6.68;;;5.65;;
58468;SDS011;44257;44.804;10.220;2023-09-07T01:36:18;7.22;;;5.88;;
58468;SDS011;44257;44.804;10.220;2023-09-07T01:38:44;6.65;;;5.93;;
58468;SDS011;44257;44.804;10.220;2023-09-07T01:41:09;8.35;;;5.88;;
58468;SDS011;44257;44.804;10.220;2023-09-07T01:43:35;6.78;;;5.90;;
58468;SDS011;44257;44.804;10.220;2023-09-07T01:46:02;7.82;;;5.68;;
58468;SDS011;44257;44.804;10.220;2023-09-07T01:48:28;6.65;;;5.95;;
58468;SDS011;44257;44.804;10.220;2023-09-07T01:50:54;9.13;;;6.03;;
58468;SDS011;44257;44.804;10.220;2023-09-07T01:53:20;7.82;;;6.50;;
58468;SDS011;44257;44.804;10.220;2023-09-07T01:55:47;8.68;;;6.00;;
58468;SDS011;44257;44.804;10.220;2023-09-07T01:58:13;8.65;;;6.40;;
58468;SDS011;44257;44.804;10.220;2023-09-07T02:00:39;10.55;;;5.95;;
58468;SDS011;44257;44.804;10.220;2023-09-07T02:03:05;7.40;;;6.60;;
58468;SDS011;44257;44.804;10.220;2023-09-07T02:05:31;6.60;;;5.70;;
58468;SDS011;44257;44.804;10.220;2023-09-07T02:07:57;7.47;;;5.75;;
58468;SDS011;44257;44.804;10.220;2023-09-07T02:10:24;8.52;;;5.90;;
58468;SDS011;44257;44.804;10.220;2023-09-07T02:12:50;7.72;;;6.10;;
58468;SDS011;44257;44.804;10.220;2023-09-07T02:15:17;8.43;;;6.28;;
58468;SDS011;44257;44.804;10.220;2023-09-07T02:17:42;8.00;;;6.20;;
58468;SDS011;44257;44.804;10.220;2023-09-07T02:20:11;6.57;;;5.63;;
58468;SDS011;44257;44.804;10.220;2023-09-07T02:22:37;6.80;;;6.10;;
58468;SDS011;44257;44.804;10.220;2023-09-07T02:25:04;6.95;;;5.78;;
58468;SDS011;44257;44.804;10.220;2023-09-07T02:27:35;6.47;;;5.50;;
58468;SDS011;44257;44.804;10.220;2023-09-07T02:30:01;8.73;;;5.82;;
58468;SDS011;44257;44.804;10.220;2023-09-07T02:32:28;7.15;;;5.75;;
58468;SDS011;44257;44.804;10.220;2023-09-07T02:34:54;7.90;;;5.72;;
58468;SDS011;44257;44.804;10.220;2023-09-07T02:37:20;8.30;;;5.78;;
58468;SDS011;44257;44.804;10.220;2023-09-07T02:39:45;7.82;;;5.95;;
58468;SDS011;44257;44.804;10.220;2023-09-07T02:42:11;6.53;;;5.63;;
58468;SDS011;44257;44.804;10.220;2023-09-07T02:44:37;7.72;;;6.07;;
58468;SDS011;44257;44.804;10.220;2023-09-07T02:47:03;8.35;;;6.22;;
58468;SDS011;44257;44.804;10.220;2023-09-07T02:49:29;7.70;;;5.78;;
58468;SDS011;44257;44.804;10.220;2023-09-07T02:51:55;6.75;;;5.90;;
58468;SDS011;44257;44.804;10.220;2023-09-07T02:54:22;7.88;;;5.95;;
58468;SDS011;44257;44.804;10.220;2023-09-07T02:56:49;10.02;;;6.10;;
58468;SDS011;44257;44.804;10.220;2023-09-07T02:59:15;6.93;;;6.22;;
58468;SDS011;44257;44.804;10.220;2023-09-07T03:01:41;6.97;;;6.25;;
58468;SDS011;44257;44.804;10.220;2023-09-07T03:04:06;7.72;;;6.13;;
58468;SDS011;44257;44.804;10.220;2023-09-07T03:06:33;7.30;;;6.22;;
58468;SDS011;44257;44.804;10.220;2023-09-07T03:08:59;8.15;;;6.47;;
58468;SDS011;44257;44.804;10.220;2023-09-07T03:11:25;6.00;;;5.38;;
58468;SDS011;44257;44.804;10.220;2023-09-07T03:13:51;8.55;;;6.45;;
58468;SDS011;44257;44.804;10.220;2023-09-07T03:16:17;8.35;;;6.35;;
58468;SDS011;44257;44.804;10.220;2023-09-07T03:18:43;8.52;;;6.25;;
58468;SDS011;44257;44.804;10.220;2023-09-07T03:21:10;6.95;;;6.25;;
58468;SDS011;44257;44.804;10.220;2023-09-07T03:23:36;6.88;;;6.07;;
58468;SDS011;44257;44.804;10.220;2023-09-07T03:26:02;8.27;;;6.35;;
58468;SDS011;44257;44.804;10.220;2023-09-07T03:28:29;7.97;;;5.97;;
58468;SDS011;44257;44.804;10.220;2023-09-07T03:30:54;7.13;;;5.82;;
58468;SDS011;44257;44.804;10.220;2023-09-07T03:33:21;7.72;;;5.53;;
58468;SDS011;44257;44.804;10.220;2023-09-07T03:35:47;8.65;;;6.60;;
58468;SDS011;44257;44.804;10.220;2023-09-07T03:38:13;7.30;;;6.13;;
58468;SDS011;44257;44.804;10.220;2023-09-07T03:40:39;7.15;;;6.03;;
58468;SDS011;44257;44.804;10.220;2023-09-07T03:43:05;7.32;;;6.28;;
58468;SDS011;44257;44.804;10.220;2023-09-07T03:45:32;10.50;;;6.32;;
58468;SDS011;44257;44.804;10.220;2023-09-07T03:47:59;9.00;;;6.18;;
58468;SDS011;44257;44.804;10.220;2023-09-07T03:50:25;8.80;;;6.53;;
58468;SDS011;44257;44.804;10.220;2023-09-07T03:52:51;8.23;;;6.53;;
58468;SDS011;44257;44.804;10.220;2023-09-07T03:55:16;7.80;;;6.97;;
58468;SDS011;44257;44.804;10.220;2023-09-07T03:57:42;7.82;;;6.13;;
58468;SDS011;44257;44.804;10.220;2023-09-07T04:00:09;7.97;;;6.72;;
58468;SDS011;44257;44.804;10.220;2023-09-07T04:02:44;8.93;;;6.82;;
58468;SDS011;44257;44.804;10.220;2023-09-07T04:05:10;7.50;;;6.80;;
58468;SDS011;44257;44.804;10.220;2023-09-07T04:07:36;8.95;;;6.95;;
58468;SDS011;44257;44.804;10.220;2023-09-07T04:10:03;7.43;;;6.68;;
58468;SDS011;44257;44.804;10.220;2023-09-07T04:12:31;9.75;;;7.40;;
58468;SDS011;44257;44.804;10.220;2023-09-07T04:14:59;8.88;;;7.07;;
58468;SDS011;44257;44.804;10.220;2023-09-07T04:17:26;9.90;;;7.20;;
58468;SDS011;44257;44.804;10.220;2023-09-07T04:19:52;9.55;;;7.53;;
58468;SDS011;44257;44.804;10.220;2023-09-07T04:22:18;12.55;;;7.45;;
58468;SDS011;44257;44.804;10.220;2023-09-07T04:24:46;8.25;;;6.40;;
58468;SDS011;44257;44.804;10.220;2023-09-07T04:27:14;7.60;;;5.80;;
58468;SDS011;44257;44.804;10.220;2023-09-07T04:29:40;8.75;;;7.25;;
58468;SDS011;44257;44.804;10.220;2023-09-07T04:32:06;8.07;;;6.55;;
58468;SDS011;44257;44.804;10.220;2023-09-07T04:34:32;7.18;;;6.15;;
58468;SDS011;44257;44.804;10.220;2023-09-07T04:36:57;7.93;;;6.25;;
58468;SDS011;44257;44.804;10.220;2023-09-07T04:39:23;8.60;;;6.30;;
58468;SDS011;44257;44.804;10.220;2023-09-07T04:41:51;8.93;;;6.57;;
58468;SDS011;44257;44.804;10.220;2023-09-07T04:44:17;7.82;;;6.05;;
58468;SDS011;44257;44.804;10.220;2023-09-07T04:46:44;9.40;;;6.82;;
58468;SDS011;44257;44.804;10.220;2023-09-07T04:49:10;8.77;;;6.40;;
58468;SDS011;44257;44.804;10.220;2023-09-07T04:51:36;8.82;;;6.28;;
58468;SDS011;44257;44.804;10.220;2023-09-07T04:54:02;12.95;;;6.60;;
58468;SDS011;44257;44.804;10.220;2023-09-07T04:56:29;10.15;;;5.95;;
58468;SDS011;44257;44.804;10.220;2023-09-07T04:58:55;7.47;;;5.78;;
58468;SDS011;44257;44.804;10.220;2023-09-07T05:01:21;9.30;;;6.20;;
58468;SDS011;44257;44.804;10.220;2023-09-07T05:03:47;15.60;;;7.68;;
58468;SDS011;44257;44.804;10.220;2023-09-07T05:06:13;11.45;;;6.07;;
58468;SDS011;44257;44.804;10.220;2023-09-07T05:08:39;17.17;;;8.07;;
58468;SDS011;44257;44.804;10.220;2023-09-07T05:11:05;7.78;;;6.60;;
58468;SDS011;44257;44.804;10.220;2023-09-07T05:13:31;9.25;;;5.57;;
58468;SDS011;44257;44.804;10.220;2023-09-07T05:15:59;7.85;;;5.50;;
58468;SDS011;44257;44.804;10.220;2023-09-07T05:18:26;10.35;;;6.60;;
58468;SDS011;44257;44.804;10.220;2023-09-07T05:20:52;8.10;;;6.15;;
58468;SDS011;44257;44.804;10.220;2023-09-07T05:23:19;9.57;;;6.75;;
58468;SDS011;44257;44.804;10.220;2023-09-07T05:25:50;8.70;;;6.00;;
58468;SDS011;44257;44.804;10.220;2023-09-07T05:28:20;8.38;;;5.60;;
58468;SDS011;44257;44.804;10.220;2023-09-07T05:30:47;12.45;;;6.38;;
58468;SDS011;44257;44.804;10.220;2023-09-07T05:33:15;11.05;;;5.97;;
58468;SDS011;44257;44.804;10.220;2023-09-07T05:35:42;7.72;;;5.90;;
58468;SDS011;44257;44.804;10.220;2023-09-07T05:38:08;7.20;;;6.10;;
58468;SDS011;44257;44.804;10.220;2023-09-07T05:40:36;11.15;;;6.25;;
58468;SDS011;44257;44.804;10.220;2023-09-07T05:43:06;11.00;;;6.65;;
58468;SDS011;44257;44.804;10.220;2023-09-07T05:45:38;32.72;;;6.90;;
58468;SDS011;44257;44.804;10.220;2023-09-07T05:48:07;21.20;;;7.53;;
58468;SDS011;44257;44.804;10.220;2023-09-07T05:50:34;15.52;;;6.25;;
58468;SDS011;44257;44.804;10.220;2023-09-07T05:53:02;12.70;;;6.22;;
58468;SDS011;44257;44.804;10.220;2023-09-07T05:55:29;14.00;;;5.65;;
58468;SDS011;44257;44.804;10.220;2023-09-07T05:57:55;15.15;;;5.57;;
58468;SDS011;44257;44.804;10.220;2023-09-07T06:00:22;10.10;;;5.30;;
58468;SDS011;44257;44.804;10.220;2023-09-07T06:02:49;21.92;;;5.85;;
58468;SDS011;44257;44.804;10.220;2023-09-07T06:05:16;24.65;;;5.82;;
58468;SDS011;44257;44.804;10.220;2023-09-07T06:07:43;10.25;;;4.63;;
58468;SDS011;44257;44.804;10.220;2023-09-07T06:10:11;10.95;;;4.72;;
58468;SDS011;44257;44.804;10.220;2023-09-07T06:12:37;16.90;;;5.07;;
58468;SDS011;44257;44.804;10.220;2023-09-07T06:15:03;14.98;;;4.72;;
58468;SDS011;44257;44.804;10.220;2023-09-07T06:17:29;17.10;;;5.50;;
58468;SDS011;44257;44.804;10.220;2023-09-07T06:19:55;19.90;;;5.05;;
58468;SDS011;44257;44.804;10.220;2023-09-07T06:22:22;26.05;;;5.60;;
58468;SDS011;44257;44.804;10.220;2023-09-07T06:24:49;13.43;;;5.38;;
58468;SDS011;44257;44.804;10.220;2023-09-07T06:27:16;15.48;;;4.50;;
58468;SDS011;44257;44.804;10.220;2023-09-07T06:29:41;16.60;;;5.20;;
58468;SDS011;44257;44.804;10.220;2023-09-07T06:32:07;12.15;;;5.00;;
58468;SDS011;44257;44.804;10.220;2023-09-07T06:34:33;28.98;;;6.13;;
58468;SDS011;44257;44.804;10.220;2023-09-07T06:36:59;8.63;;;4.70;;
58468;SDS011;44257;44.804;10.220;2023-09-07T06:39:28;13.38;;;5.30;;
58468;SDS011;44257;44.804;10.220;2023-09-07T06:41:53;9.93;;;5.03;;
58468;SDS011;44257;44.804;10.220;2023-09-07T06:44:22;8.07;;;4.60;;
58468;SDS011;44257;44.804;10.220;2023-09-07T06:46:49;12.82;;;4.80;;
58468;SDS011;44257;44.804;10.220;2023-09-07T06:49:16;9.65;;;5.28;;
58468;SDS011;44257;44.804;10.220;2023-09-07T06:51:42;20.30;;;5.18;;
58468;SDS011;44257;44.804;10.220;2023-09-07T06:54:08;11.95;;;4.65;;
58468;SDS011;44257;44.804;10.220;2023-09-07T06:56:35;12.45;;;4.38;;
58468;SDS011;44257;44.804;10.220;2023-09-07T06:59:01;51.25;;;7.35;;
58468;SDS011;44257;44.804;10.220;2023-09-07T07:01:27;10.65;;;4.60;;
58468;SDS011;44257;44.804;10.220;2023-09-07T07:03:55;28.80;;;5.60;;
58468;SDS011;44257;44.804;10.220;2023-09-07T07:06:23;8.07;;;4.22;;
58468;SDS011;44257;44.804;10.220;2023-09-07T07:08:51;9.55;;;4.93;;
58468;SDS011;44257;44.804;10.220;2023-09-07T07:11:17;11.82;;;5.00;;
58468;SDS011;44257;44.804;10.220;2023-09-07T07:13:43;13.93;;;5.43;;
58468;SDS011;44257;44.804;10.220;2023-09-07T07:16:09;11.18;;;4.82;;
58468;SDS011;44257;44.804;10.220;2023-09-07T07:18:35;9.77;;;4.78;;
58468;SDS011;44257;44.804;10.220;2023-09-07T07:21:01;10.73;;;4.70;;
58468;SDS011;44257;44.804;10.220;2023-09-07T07:23:28;19.77;;;5.93;;
58468;SDS011;44257;44.804;10.220;2023-09-07T07:25:53;5.82;;;4.53;;
58468;SDS011;44257;44.804;10.220;2023-09-07T07:28:20;6.78;;;4.50;;
58468;SDS011;44257;44.804;10.220;2023-09-07T07:30:46;10.30;;;4.30;;
58468;SDS011;44257;44.804;10.220;2023-09-07T07:33:13;9.48;;;4.65;;
58468;SDS011;44257;44.804;10.220;2023-09-07T07:35:39;12.30;;;4.40;;
58468;SDS011;44257;44.804;10.220;2023-09-07T07:38:05;12.90;;;5.35;;
58468;SDS011;44257;44.804;10.220;2023-09-07T07:40:34;12.52;;;5.13;;
58468;SDS011;44257;44.804;10.220;2023-09-07T07:43:01;10.98;;;4.53;;
58468;SDS011;44257;44.804;10.220;2023-09-07T07:45:28;9.73;;;4.82;;
58468;SDS011;44257;44.804;10.220;2023-09-07T07:47:55;10.10;;;4.63;;
58468;SDS011;44257;44.804;10.220;2023-09-07T07:50:22;9.77;;;4.50;;
58468;SDS011;44257;44.804;10.220;2023-09-07T07:52:48;10.15;;;4.47;;
58468;SDS011;44257;44.804;10.220;2023-09-07T07:55:14;8.18;;;4.78;;
58468;SDS011;44257;44.804;10.220;2023-09-07T07:57:41;16.13;;;5.25;;
58468;SDS011;44257;44.804;10.220;2023-09-07T08:00:09;12.80;;;5.22;;
58468;SDS011;44257;44.804;10.220;2023-09-07T08:02:48;8.95;;;4.55;;
58468;SDS011;44257;44.804;10.220;2023-09-07T08:05:15;10.50;;;4.78;;
58468;SDS011;44257;44.804;10.220;2023-09-07T08:07:42;12.38;;;5.05;;
58468;SDS011;44257;44.804;10.220;2023-09-07T08:10:07;10.60;;;4.63;;
58468;SDS011;44257;44.804;10.220;2023-09-07T08:12:34;9.57;;;4.88;;
58468;SDS011;44257;44.804;10.220;2023-09-07T08:15:00;9.63;;;5.10;;
58468;SDS011;44257;44.804;10.220;2023-09-07T08:17:26;7.80;;;5.10;;
58468;SDS011;44257;44.804;10.220;2023-09-07T08:19:52;8.15;;;4.93;;
58468;SDS011;44257;44.804;10.220;2023-09-07T08:22:23;8.73;;;4.90;;
58468;SDS011;44257;44.804;10.220;2023-09-07T08:24:49;10.07;;;5.25;;
58468;SDS011;44257;44.804;10.220;2023-09-07T08:27:16;8.18;;;4.80;;
58468;SDS011;44257;44.804;10.220;2023-09-07T08:29:46;7.82;;;5.60;;
58468;SDS011;44257;44.804;10.220;2023-09-07T08:32:14;10.77;;;5.28;;
58468;SDS011;44257;44.804;10.220;2023-09-07T08:34:39;7.20;;;4.93;;
58468;SDS011;44257;44.804;10.220;2023-09-07T08:37:06;5.35;;;4.45;;
58468;SDS011;44257;44.804;10.220;2023-09-07T08:39:35;6.18;;;4.65;;
58468;SDS011;44257;44.804;10.220;2023-09-07T08:42:01;6.72;;;4.75;;
58468;SDS011;44257;44.804;10.220;2023-09-07T08:44:28;7.90;;;4.18;;
58468;SDS011;44257;44.804;10.220;2023-09-07T08:46:55;7.80;;;4.57;;
58468;SDS011;44257;44.804;10.220;2023-09-07T08:49:22;8.50;;;4.53;;
58468;SDS011;44257;44.804;10.220;2023-09-07T08:51:50;8.05;;;5.18;;
58468;SDS011;44257;44.804;10.220;2023-09-07T08:54:16;5.80;;;4.35;;
58468;SDS011;44257;44.804;10.220;2023-09-07T08:56:44;6.03;;;4.53;;
58468;SDS011;44257;44.804;10.220;2023-09-07T08:59:10;5.63;;;4.35;;
58468;SDS011;44257;44.804;10.220;2023-09-07T09:01:36;8.00;;;4.35;;
58468;SDS011;44257;44.804;10.220;2023-09-07T09:04:02;5.90;;;4.45;;
58468;SDS011;44257;44.804;10.220;2023-09-07T09:06:28;7.20;;;4.45;;
58468;SDS011;44257;44.804;10.220;2023-09-07T09:08:55;7.32;;;4.30;;
58468;SDS011;44257;44.804;10.220;2023-09-07T09:11:22;5.07;;;3.95;;
58468;SDS011;44257;44.804;10.220;2023-09-07T09:13:50;7.55;;;4.40;;
58468;SDS011;44257;44.804;10.220;2023-09-07T09:16:17;5.22;;;4.05;;
58468;SDS011;44257;44.804;10.220;2023-09-07T09:18:56;7.15;;;3.90;;
58468;SDS011;44257;44.804;10.220;2023-09-07T09:21:23;6.03;;;4.25;;
58468;SDS011;44257;44.804;10.220;2023-09-07T09:23:51;6.32;;;4.13;;
58468;SDS011;44257;44.804;10.220;2023-09-07T09:26:18;5.57;;;4.00;;
58468;SDS011;44257;44.804;10.220;2023-09-07T09:28:45;6.43;;;4.13;;
58468;SDS011;44257;44.804;10.220;2023-09-07T09:31:11;6.82;;;3.90;;
58468;SDS011;44257;44.804;10.220;2023-09-07T09:33:38;5.43;;;3.95;;
58468;SDS011;44257;44.804;10.220;2023-09-07T09:36:05;7.55;;;3.83;;
58468;SDS011;44257;44.804;10.220;2023-09-07T09:38:31;7.57;;;4.28;;
58468;SDS011;44257;44.804;10.220;2023-09-07T09:40:58;5.05;;;4.13;;
58468;SDS011;44257;44.804;10.220;2023-09-07T09:43:25;7.68;;;4.68;;
58468;SDS011;44257;44.804;10.220;2023-09-07T09:45:51;6.85;;;4.15;;
58468;SDS011;44257;44.804;10.220;2023-09-07T09:48:21;9.32;;;4.72;;
58468;SDS011;44257;44.804;10.220;2023-09-07T09:50:49;6.95;;;4.28;;
58468;SDS011;44257;44.804;10.220;2023-09-07T09:53:16;6.93;;;4.20;;
58468;SDS011;44257;44.804;10.220;2023-09-07T09:55:48;6.65;;;4.38;;
58468;SDS011;44257;44.804;10.220;2023-09-07T09:58:16;7.88;;;4.38;;
58468;SDS011;44257;44.804;10.220;2023-09-07T10:00:44;5.22;;;3.72;;
58468;SDS011;44257;44.804;10.220;2023-09-07T10:05:46;8.27;;;4.43;;
58468;SDS011;44257;44.804;10.220;2023-09-07T10:08:12;6.28;;;4.55;;
58468;SDS011;44257;44.804;10.220;2023-09-07T10:10:40;4.55;;;3.60;;
58468;SDS011;44257;44.804;10.220;2023-09-07T10:13:07;6.25;;;3.83;;
58468;SDS011;44257;44.804;10.220;2023-09-07T10:15:33;13.95;;;4.82;;
58468;SDS011;44257;44.804;10.220;2023-09-07T10:20:34;6.53;;;4.15;;
58468;SDS011;44257;44.804;10.220;2023-09-07T10:23:21;6.15;;;4.50;;
58468;SDS011;44257;44.804;10.220;2023-09-07T10:25:50;8.20;;;4.90;;
58468;SDS011;44257;44.804;10.220;2023-09-07T10:28:24;7.07;;;4.50;;
58468;SDS011;44257;44.804;10.220;2023-09-07T10:31:00;6.63;;;4.35;;
58468;SDS011;44257;44.804;10.220;2023-09-07T10:33:31;6.75;;;4.30;;
58468;SDS011;44257;44.804;10.220;2023-09-07T10:35:58;5.30;;;4.10;;
58468;SDS011;44257;44.804;10.220;2023-09-07T10:38:24;6.60;;;4.38;;
58468;SDS011;44257;44.804;10.220;2023-09-07T10:40:57;4.97;;;3.70;;
58468;SDS011;44257;44.804;10.220;2023-09-07T10:43:27;5.38;;;3.95;;
58468;SDS011;44257;44.804;10.220;2023-09-07T10:45:58;4.60;;;3.90;;
58468;SDS011;44257;44.804;10.220;2023-09-07T10:48:26;5.43;;;3.65;;
58468;SDS011;44257;44.804;10.220;2023-09-07T10:50:54;9.77;;;4.22;;
58468;SDS011;44257;44.804;10.220;2023-09-07T10:53:40;4.88;;;3.70;;
58468;SDS011;44257;44.804;10.220;2023-09-07T10:56:07;7.25;;;3.83;;
58468;SDS011;44257;44.804;10.220;2023-09-07T10:58:34;4.70;;;3.80;;
58468;SDS011;44257;44.804;10.220;2023-09-07T11:01:03;9.60;;;4.15;;
58468;SDS011;44257;44.804;10.220;2023-09-07T11:03:30;4.72;;;3.67;;
58468;SDS011;44257;44.804;10.220;2023-09-07T11:06:01;8.15;;;4.72;;
58468;SDS011;44257;44.804;10.220;2023-09-07T11:08:31;5.55;;;4.40;;
58468;SDS011;44257;44.804;10.220;2023-09-07T11:10:58;6.22;;;3.78;;
58468;SDS011;44257;44.804;10.220;2023-09-07T11:13:26;5.25;;;3.88;;
58468;SDS011;44257;44.804;10.220;2023-09-07T11:15:55;5.78;;;3.90;;
58468;SDS011;44257;44.804;10.220;2023-09-07T11:18:23;7.38;;;3.95;;
58468;SDS011;44257;44.804;10.220;2023-09-07T11:20:50;5.97;;;3.58;;
58468;SDS011;44257;44.804;10.220;2023-09-07T11:23:17;7.25;;;4.40;;
58468;SDS011;44257;44.804;10.220;2023-09-07T11:25:46;6.63;;;3.83;;
58468;SDS011;44257;44.804;10.220;2023-09-07T11:28:12;6.25;;;3.83;;
58468;SDS011;44257;44.804;10.220;2023-09-07T11:30:54;10.63;;;4.43;;
58468;SDS011;44257;44.804;10.220;2023-09-07T11:33:21;6.93;;;3.85;;
58468;SDS011;44257;44.804;10.220;2023-09-07T11:35:47;4.30;;;3.58;;
58468;SDS011;44257;44.804;10.220;2023-09-07T11:38:14;5.13;;;3.67;;
58468;SDS011;44257;44.804;10.220;2023-09-07T11:40:41;6.07;;;4.25;;
58468;SDS011;44257;44.804;10.220;2023-09-07T11:43:14;9.13;;;4.05;;
58468;SDS011;44257;44.804;10.220;2023-09-07T11:45:41;6.82;;;4.20;;
58468;SDS011;44257;44.804;10.220;2023-09-07T11:48:09;5.18;;;3.88;;
58468;SDS011;44257;44.804;10.220;2023-09-07T11:50:35;4.47;;;3.75;;
58468;SDS011;44257;44.804;10.220;2023-09-07T11:53:02;5.20;;;4.22;;
58468;SDS011;44257;44.804;10.220;2023-09-07T11:55:28;5.15;;;4.07;;
58468;SDS011;44257;44.804;10.220;2023-09-07T11:57:54;7.80;;;4.22;;
58468;SDS011;44257;44.804;10.220;2023-09-07T12:00:20;6.28;;;4.63;;
58468;SDS011;44257;44.804;10.220;2023-09-07T12:02:47;5.90;;;3.97;;
58468;SDS011;44257;44.804;10.220;2023-09-07T12:05:13;6.65;;;4.28;;
58468;SDS011;44257;44.804;10.220;2023-09-07T12:07:43;8.85;;;4.00;;
58468;SDS011;44257;44.804;10.220;2023-09-07T12:10:09;8.20;;;4.60;;
58468;SDS011;44257;44.804;10.220;2023-09-07T12:12:42;15.27;;;4.60;;
58468;SDS011;44257;44.804;10.220;2023-09-07T12:15:10;5.25;;;4.03;;
58468;SDS011;44257;44.804;10.220;2023-09-07T12:17:36;6.13;;;3.78;;
58468;SDS011;44257;44.804;10.220;2023-09-07T12:20:02;9.10;;;3.75;;
58468;SDS011;44257;44.804;10.220;2023-09-07T12:22:31;5.68;;;4.22;;
58468;SDS011;44257;44.804;10.220;2023-09-07T12:24:59;6.32;;;4.20;;
58468;SDS011;44257;44.804;10.220;2023-09-07T12:27:25;5.07;;;4.28;;
58468;SDS011;44257;44.804;10.220;2023-09-07T12:29:50;6.60;;;3.95;;
58468;SDS011;44257;44.804;10.220;2023-09-07T12:32:16;5.15;;;4.20;;
58468;SDS011;44257;44.804;10.220;2023-09-07T12:34:42;6.13;;;4.05;;
58468;SDS011;44257;44.804;10.220;2023-09-07T12:37:08;10.75;;;4.32;;
58468;SDS011;44257;44.804;10.220;2023-09-07T12:39:33;6.07;;;3.65;;
58468;SDS011;44257;44.804;10.220;2023-09-07T12:41:59;6.50;;;4.03;;
58468;SDS011;44257;44.804;10.220;2023-09-07T12:44:26;5.93;;;3.78;;
58468;SDS011;44257;44.804;10.220;2023-09-07T12:46:52;7.03;;;4.57;;
58468;SDS011;44257;44.804;10.220;2023-09-07T12:49:18;4.68;;;4.07;;
58468;SDS011;44257;44.804;10.220;2023-09-07T12:51:45;5.63;;;4.22;;
58468;SDS011;44257;44.804;10.220;2023-09-07T12:54:12;6.75;;;3.90;;
58468;SDS011;44257;44.804;10.220;2023-09-07T12:56:38;7.05;;;4.00;;
58468;SDS011;44257;44.804;10.220;2023-09-07T12:59:04;5.72;;;3.95;;
58468;SDS011;44257;44.804;10.220;2023-09-07T13:01:29;5.00;;;3.80;;
58468;SDS011;44257;44.804;10.220;2023-09-07T13:03:56;5.22;;;3.88;;
58468;SDS011;44257;44.804;10.220;2023-09-07T13:06:22;5.07;;;3.55;;
58468;SDS011;44257;44.804;10.220;2023-09-07T13:08:48;6.22;;;3.90;;
58468;SDS011;44257;44.804;10.220;2023-09-07T13:11:13;4.10;;;3.47;;
58468;SDS011;44257;44.804;10.220;2023-09-07T13:13:39;6.13;;;3.63;;
58468;SDS011;44257;44.804;10.220;2023-09-07T13:16:05;8.25;;;3.72;;
58468;SDS011;44257;44.804;10.220;2023-09-07T13:18:31;5.88;;;4.03;;
58468;SDS011;44257;44.804;10.220;2023-09-07T13:20:57;9.68;;;3.97;;
58468;SDS011;44257;44.804;10.220;2023-09-07T13:23:29;5.07;;;3.80;;
58468;SDS011;44257;44.804;10.220;2023-09-07T13:25:56;4.03;;;3.00;;
58468;SDS011;44257;44.804;10.220;2023-09-07T13:28:22;4.18;;;3.45;;
58468;SDS011;44257;44.804;10.220;2023-09-07T13:30:49;4.88;;;3.70;;
58468;SDS011;44257;44.804;10.220;2023-09-07T13:33:15;5.30;;;3.55;;
58468;SDS011;44257;44.804;10.220;2023-09-07T13:35:41;5.45;;;4.20;;
58468;SDS011;44257;44.804;10.220;2023-09-07T13:38:09;7.53;;;3.75;;
58468;SDS011;44257;44.804;10.220;2023-09-07T13:40:34;4.43;;;3.70;;
58468;SDS011;44257;44.804;10.220;2023-09-07T13:43:00;5.40;;;4.07;;
58468;SDS011;44257;44.804;10.220;2023-09-07T13:45:26;5.30;;;4.13;;
58468;SDS011;44257;44.804;10.220;2023-09-07T13:47:54;6.80;;;3.72;;
58468;SDS011;44257;44.804;10.220;2023-09-07T13:50:20;4.82;;;3.30;;
58468;SDS011;44257;44.804;10.220;2023-09-07T13:52:46;8.13;;;3.90;;
58468;SDS011;44257;44.804;10.220;2023-09-07T13:55:12;5.32;;;3.72;;
58468;SDS011;44257;44.804;10.220;2023-09-07T13:57:38;5.50;;;4.13;;
58468;SDS011;44257;44.804;10.220;2023-09-07T14:00:04;6.45;;;3.65;;
58468;SDS011;44257;44.804;10.220;2023-09-07T14:02:31;9.77;;;3.70;;
58468;SDS011;44257;44.804;10.220;2023-09-07T14:05:00;5.20;;;3.70;;
58468;SDS011;44257;44.804;10.220;2023-09-07T14:07:26;7.90;;;3.67;;
58468;SDS011;44257;44.804;10.220;2023-09-07T14:09:52;5.45;;;3.67;;
58468;SDS011;44257;44.804;10.220;2023-09-07T14:12:19;5.90;;;3.75;;
58468;SDS011;44257;44.804;10.220;2023-09-07T14:14:45;6.32;;;3.85;;
58468;SDS011;44257;44.804;10.220;2023-09-07T14:17:10;4.15;;;3.72;;
58468;SDS011;44257;44.804;10.220;2023-09-07T14:19:36;7.82;;;3.92;;
58468;SDS011;44257;44.804;10.220;2023-09-07T14:22:02;7.57;;;3.75;;
58468;SDS011;44257;44.804;10.220;2023-09-07T14:24:28;6.72;;;3.88;;
58468;SDS011;44257;44.804;10.220;2023-09-07T14:26:54;14.20;;;4.00;;
58468;SDS011;44257;44.804;10.220;2023-09-07T14:29:19;5.78;;;3.42;;
58468;SDS011;44257;44.804;10.220;2023-09-07T14:31:45;6.20;;;4.18;;
58468;SDS011;44257;44.804;10.220;2023-09-07T14:34:12;4.30;;;2.90;;